sensor_id;sensor_type;location;lat;lon;timestamp;P1;durP1;ratioP1;P2;durP2;ratioP2
33152;SDS011;19509;43.862;26.176;2023-11-21T00:02:13;0.70;;;0.70;;
33152;SDS011;19509;43.862;26.176;2023-11-21T00:04:39;0.90;;;0.90;;
33152;SDS011;19509;43.862;26.176;2023-11-21T00:07:04;1.10;;;1.10;;
33152;SDS011;19509;43.862;26.176;2023-11-21T00:09:31;1.10;;;1.10;;
33152;SDS011;19509;43.862;26.176;2023-11-21T00:11:57;0.90;;;0.90;;
33152;SDS011;19509;43.862;26.176;2023-11-21T00:14:22;0.77;;;0.77;;
33152;SDS011;19509;43.862;26.176;2023-11-21T00:16:48;0.70;;;0.70;;
33152;SDS011;19509;43.862;26.176;2023-11-21T00:19:14;0.70;;;0.70;;
33152;SDS011;19509;43.862;26.176;2023-11-21T00:21:39;0.80;;;0.80;;
33152;SDS011;19509;43.862;26.176;2023-11-21T00:24:05;0.60;;;0.60;;
33152;SDS011;19509;43.862;26.176;2023-11-21T00:26:30;0.70;;;0.70;;
33152;SDS011;19509;43.862;26.176;2023-11-21T00:28:57;0.70;;;0.70;;
33152;SDS011;19509;43.862;26.176;2023-11-21T00:31:22;0.80;;;0.80;;
33152;SDS011;19509;43.862;26.176;2023-11-21T00:33:48;0.70;;;0.70;;
33152;SDS011;19509;43.862;26.176;2023-11-21T00:36:13;0.70;;;0.70;;
33152;SDS011;19509;43.862;26.176;2023-11-21T00:38:39;0.63;;;0.63;;
33152;SDS011;19509;43.862;26.176;2023-11-21T00:41:06;0.60;;;0.60;;
33152;SDS011;19509;43.862;26.176;2023-11-21T00:43:32;0.70;;;0.70;;
33152;SDS011;19509;43.862;26.176;2023-11-21T00:45:58;0.63;;;0.63;;
33152;SDS011;19509;43.862;26.176;2023-11-21T00:48:24;0.70;;;0.70;;
33152;SDS011;19509;43.862;26.176;2023-11-21T00:50:49;0.70;;;0.70;;
33152;SDS011;19509;43.862;26.176;2023-11-21T00:53:15;0.70;;;0.70;;
33152;SDS011;19509;43.862;26.176;2023-11-21T00:55:41;0.80;;;0.80;;
33152;SDS011;19509;43.862;26.176;2023-11-21T00:58:06;0.73;;;0.73;;
33152;SDS011;19509;43.862;26.176;2023-11-21T01:00:32;0.60;;;0.60;;
33152;SDS011;19509;43.862;26.176;2023-11-21T01:02:58;0.70;;;0.70;;
33152;SDS011;19509;43.862;26.176;2023-11-21T01:05:24;0.80;;;0.80;;
33152;SDS011;19509;43.862;26.176;2023-11-21T01:07:50;0.70;;;0.70;;
33152;SDS011;19509;43.862;26.176;2023-11-21T01:10:15;0.80;;;0.80;;
33152;SDS011;19509;43.862;26.176;2023-11-21T01:12:42;0.70;;;0.70;;
33152;SDS011;19509;43.862;26.176;2023-11-21T01:15:08;0.87;;;0.87;;
33152;SDS011;19509;43.862;26.176;2023-11-21T01:17:34;0.70;;;0.70;;
33152;SDS011;19509;43.862;26.176;2023-11-21T01:20:00;0.80;;;0.80;;
33152;SDS011;19509;43.862;26.176;2023-11-21T01:22:26;0.70;;;0.70;;
33152;SDS011;19509;43.862;26.176;2023-11-21T01:24:53;0.97;;;0.97;;
33152;SDS011;19509;43.862;26.176;2023-11-21T01:27:19;0.63;;;0.63;;
33152;SDS011;19509;43.862;26.176;2023-11-21T01:29:44;0.70;;;0.70;;
33152;SDS011;19509;43.862;26.176;2023-11-21T01:32:10;0.70;;;0.70;;
33152;SDS011;19509;43.862;26.176;2023-11-21T01:34:36;0.70;;;0.70;;
33152;SDS011;19509;43.862;26.176;2023-11-21T01:37:02;0.60;;;0.60;;
33152;SDS011;19509;43.862;26.176;2023-11-21T01:39:29;0.60;;;0.60;;
33152;SDS011;19509;43.862;26.176;2023-11-21T01:41:55;0.60;;;0.60;;
33152;SDS011;19509;43.862;26.176;2023-11-21T01:44:23;0.53;;;0.53;;
33152;SDS011;19509;43.862;26.176;2023-11-21T01:46:49;0.70;;;0.70;;
33152;SDS011;19509;43.862;26.176;2023-11-21T01:49:15;0.90;;;0.90;;
33152;SDS011;19509;43.862;26.176;2023-11-21T01:51:43;0.80;;;0.80;;
33152;SDS011;19509;43.862;26.176;2023-11-21T01:54:14;0.70;;;0.70;;
33152;SDS011;19509;43.862;26.176;2023-11-21T01:56:42;0.70;;;0.70;;
33152;SDS011;19509;43.862;26.176;2023-11-21T01:59:10;0.60;;;0.60;;
33152;SDS011;19509;43.862;26.176;2023-11-21T02:01:36;0.63;;;0.63;;
33152;SDS011;19509;43.862;26.176;2023-11-21T02:04:02;0.70;;;0.70;;
33152;SDS011;19509;43.862;26.176;2023-11-21T02:06:28;0.80;;;0.80;;
33152;SDS011;19509;43.862;26.176;2023-11-21T02:08:56;1.00;;;1.00;;
33152;SDS011;19509;43.862;26.176;2023-11-21T02:11:21;1.03;;;1.03;;
33152;SDS011;19509;43.862;26.176;2023-11-21T02:13:47;0.80;;;0.80;;
33152;SDS011;19509;43.862;26.176;2023-11-21T02:16:15;0.73;;;0.73;;
33152;SDS011;19509;43.862;26.176;2023-11-21T02:18:40;0.70;;;0.70;;
33152;SDS011;19509;43.862;26.176;2023-11-21T02:21:06;0.73;;;0.67;;
33152;SDS011;19509;43.862;26.176;2023-11-21T02:23:32;0.70;;;0.70;;
33152;SDS011;19509;43.862;26.176;2023-11-21T02:25:58;0.60;;;0.60;;
33152;SDS011;19509;43.862;26.176;2023-11-21T02:28:29;0.60;;;0.60;;
33152;SDS011;19509;43.862;26.176;2023-11-21T02:30:54;0.50;;;0.50;;
33152;SDS011;19509;43.862;26.176;2023-11-21T02:33:24;0.70;;;0.70;;
33152;SDS011;19509;43.862;26.176;2023-11-21T02:35:50;0.70;;;0.70;;
33152;SDS011;19509;43.862;26.176;2023-11-21T02:38:19;0.60;;;0.60;;
33152;SDS011;19509;43.862;26.176;2023-11-21T02:40:47;0.60;;;0.60;;
33152;SDS011;19509;43.862;26.176;2023-11-21T02:43:14;0.67;;;0.67;;
33152;SDS011;19509;43.862;26.176;2023-11-21T02:45:39;0.60;;;0.60;;
33152;SDS011;19509;43.862;26.176;2023-11-21T02:48:06;0.57;;;0.57;;
33152;SDS011;19509;43.862;26.176;2023-11-21T02:50:32;0.70;;;0.70;;
33152;SDS011;19509;43.862;26.176;2023-11-21T02:52:58;0.60;;;0.60;;
33152;SDS011;19509;43.862;26.176;2023-11-21T02:55:25;0.60;;;0.60;;
33152;SDS011;19509;43.862;26.176;2023-11-21T02:57:52;0.70;;;0.70;;
33152;SDS011;19509;43.862;26.176;2023-11-21T03:00:17;0.70;;;0.70;;
33152;SDS011;19509;43.862;26.176;2023-11-21T03:02:43;0.70;;;0.70;;
33152;SDS011;19509;43.862;26.176;2023-11-21T03:05:09;0.60;;;0.60;;
33152;SDS011;19509;43.862;26.176;2023-11-21T03:07:36;0.60;;;0.60;;
33152;SDS011;19509;43.862;26.176;2023-11-21T03:10:02;0.70;;;0.70;;
33152;SDS011;19509;43.862;26.176;2023-11-21T03:12:29;0.60;;;0.60;;
33152;SDS011;19509;43.862;26.176;2023-11-21T03:14:55;0.67;;;0.67;;
33152;SDS011;19509;43.862;26.176;2023-11-21T03:17:20;0.67;;;0.67;;
33152;SDS011;19509;43.862;26.176;2023-11-21T03:19:46;0.70;;;0.70;;
33152;SDS011;19509;43.862;26.176;2023-11-21T03:22:12;0.67;;;0.67;;
33152;SDS011;19509;43.862;26.176;2023-11-21T03:24:37;0.63;;;0.63;;
33152;SDS011;19509;43.862;26.176;2023-11-21T03:27:03;0.60;;;0.60;;
33152;SDS011;19509;43.862;26.176;2023-11-21T03:29:29;0.87;;;0.50;;
33152;SDS011;19509;43.862;26.176;2023-11-21T03:31:55;0.70;;;0.70;;
33152;SDS011;19509;43.862;26.176;2023-11-21T03:34:24;0.60;;;0.60;;
33152;SDS011;19509;43.862;26.176;2023-11-21T03:36:52;0.80;;;0.80;;
33152;SDS011;19509;43.862;26.176;2023-11-21T03:39:19;0.70;;;0.70;;
33152;SDS011;19509;43.862;26.176;2023-11-21T03:41:45;0.67;;;0.67;;
33152;SDS011;19509;43.862;26.176;2023-11-21T03:44:11;0.60;;;0.60;;
33152;SDS011;19509;43.862;26.176;2023-11-21T03:46:36;0.60;;;0.60;;
33152;SDS011;19509;43.862;26.176;2023-11-21T03:49:02;0.60;;;0.60;;
33152;SDS011;19509;43.862;26.176;2023-11-21T03:51:27;0.70;;;0.70;;
33152;SDS011;19509;43.862;26.176;2023-11-21T03:53:53;0.50;;;0.50;;
33152;SDS011;19509;43.862;26.176;2023-11-21T03:56:19;0.60;;;0.60;;
33152;SDS011;19509;43.862;26.176;2023-11-21T03:58:47;0.50;;;0.50;;
33152;SDS011;19509;43.862;26.176;2023-11-21T04:01:19;0.70;;;0.70;;
33152;SDS011;19509;43.862;26.176;2023-11-21T04:03:46;0.50;;;0.50;;
33152;SDS011;19509;43.862;26.176;2023-11-21T04:06:12;0.70;;;0.70;;
33152;SDS011;19509;43.862;26.176;2023-11-21T04:08:38;0.70;;;0.70;;
33152;SDS011;19509;43.862;26.176;2023-11-21T04:11:03;0.77;;;0.77;;
33152;SDS011;19509;43.862;26.176;2023-11-21T04:13:29;0.90;;;0.90;;
33152;SDS011;19509;43.862;26.176;2023-11-21T04:15:55;0.80;;;0.80;;
33152;SDS011;19509;43.862;26.176;2023-11-21T04:18:21;0.70;;;0.70;;
33152;SDS011;19509;43.862;26.176;2023-11-21T04:20:48;0.70;;;0.70;;
33152;SDS011;19509;43.862;26.176;2023-11-21T04:23:14;0.83;;;0.83;;
33152;SDS011;19509;43.862;26.176;2023-11-21T04:25:40;0.60;;;0.60;;
33152;SDS011;19509;43.862;26.176;2023-11-21T04:28:06;0.80;;;0.80;;
33152;SDS011;19509;43.862;26.176;2023-11-21T04:30:31;0.70;;;0.70;;
33152;SDS011;19509;43.862;26.176;2023-11-21T04:32:57;0.80;;;0.80;;
33152;SDS011;19509;43.862;26.176;2023-11-21T04:35:23;0.50;;;0.50;;
33152;SDS011;19509;43.862;26.176;2023-11-21T04:37:49;0.67;;;0.67;;
33152;SDS011;19509;43.862;26.176;2023-11-21T04:40:16;0.80;;;0.80;;
33152;SDS011;19509;43.862;26.176;2023-11-21T04:42:42;0.80;;;0.80;;
33152;SDS011;19509;43.862;26.176;2023-11-21T04:45:07;0.70;;;0.70;;
33152;SDS011;19509;43.862;26.176;2023-11-21T04:47:36;0.73;;;0.73;;
33152;SDS011;19509;43.862;26.176;2023-11-21T04:50:02;0.70;;;0.70;;
33152;SDS011;19509;43.862;26.176;2023-11-21T04:52:28;0.83;;;0.83;;
33152;SDS011;19509;43.862;26.176;2023-11-21T04:54:54;0.60;;;0.60;;
33152;SDS011;19509;43.862;26.176;2023-11-21T04:57:22;0.67;;;0.67;;
33152;SDS011;19509;43.862;26.176;2023-11-21T04:59:48;0.67;;;0.67;;
33152;SDS011;19509;43.862;26.176;2023-11-21T05:02:15;0.70;;;0.70;;
33152;SDS011;19509;43.862;26.176;2023-11-21T05:04:41;2.67;;;0.67;;
33152;SDS011;19509;43.862;26.176;2023-11-21T05:07:07;0.50;;;0.50;;
33152;SDS011;19509;43.862;26.176;2023-11-21T05:09:33;0.70;;;0.70;;
33152;SDS011;19509;43.862;26.176;2023-11-21T05:12:01;0.50;;;0.50;;
33152;SDS011;19509;43.862;26.176;2023-11-21T05:14:27;0.60;;;0.60;;
33152;SDS011;19509;43.862;26.176;2023-11-21T05:16:52;0.60;;;0.60;;
33152;SDS011;19509;43.862;26.176;2023-11-21T05:19:18;0.50;;;0.50;;
33152;SDS011;19509;43.862;26.176;2023-11-21T05:21:43;0.60;;;0.60;;
33152;SDS011;19509;43.862;26.176;2023-11-21T05:24:09;0.67;;;0.67;;
33152;SDS011;19509;43.862;26.176;2023-11-21T05:26:34;0.60;;;0.60;;
33152;SDS011;19509;43.862;26.176;2023-11-21T05:29:00;0.77;;;0.77;;
33152;SDS011;19509;43.862;26.176;2023-11-21T05:31:25;0.80;;;0.80;;
33152;SDS011;19509;43.862;26.176;2023-11-21T05:33:52;0.63;;;0.63;;
33152;SDS011;19509;43.862;26.176;2023-11-21T05:36:18;0.57;;;0.57;;
33152;SDS011;19509;43.862;26.176;2023-11-21T05:38:43;0.60;;;0.60;;
33152;SDS011;19509;43.862;26.176;2023-11-21T05:41:09;0.60;;;0.60;;
33152;SDS011;19509;43.862;26.176;2023-11-21T05:43:38;0.60;;;0.60;;
33152;SDS011;19509;43.862;26.176;2023-11-21T05:46:04;0.50;;;0.50;;
33152;SDS011;19509;43.862;26.176;2023-11-21T05:48:32;0.60;;;0.60;;
33152;SDS011;19509;43.862;26.176;2023-11-21T05:50:58;0.60;;;0.60;;
33152;SDS011;19509;43.862;26.176;2023-11-21T05:53:24;0.70;;;0.70;;
33152;SDS011;19509;43.862;26.176;2023-11-21T05:55:49;0.67;;;0.67;;
33152;SDS011;19509;43.862;26.176;2023-11-21T05:58:15;0.50;;;0.50;;
33152;SDS011;19509;43.862;26.176;2023-11-21T06:00:40;0.60;;;0.60;;
33152;SDS011;19509;43.862;26.176;2023-11-21T06:03:06;0.60;;;0.60;;
33152;SDS011;19509;43.862;26.176;2023-11-21T06:05:33;0.60;;;0.60;;
33152;SDS011;19509;43.862;26.176;2023-11-21T06:07:59;0.80;;;0.80;;
33152;SDS011;19509;43.862;26.176;2023-11-21T06:10:25;0.70;;;0.70;;
33152;SDS011;19509;43.862;26.176;2023-11-21T06:12:52;0.60;;;0.60;;
33152;SDS011;19509;43.862;26.176;2023-11-21T06:15:18;0.60;;;0.60;;
33152;SDS011;19509;43.862;26.176;2023-11-21T06:17:48;0.60;;;0.60;;
33152;SDS011;19509;43.862;26.176;2023-11-21T06:20:19;1.10;;;1.10;;
33152;SDS011;19509;43.862;26.176;2023-11-21T06:22:47;1.00;;;1.00;;
33152;SDS011;19509;43.862;26.176;2023-11-21T06:25:15;0.63;;;0.63;;
33152;SDS011;19509;43.862;26.176;2023-11-21T06:27:42;0.53;;;0.53;;
33152;SDS011;19509;43.862;26.176;2023-11-21T06:30:12;0.70;;;0.70;;
33152;SDS011;19509;43.862;26.176;2023-11-21T06:32:40;0.53;;;0.53;;
33152;SDS011;19509;43.862;26.176;2023-11-21T06:35:06;2.73;;;0.70;;
33152;SDS011;19509;43.862;26.176;2023-11-21T06:37:33;0.60;;;0.60;;
33152;SDS011;19509;43.862;26.176;2023-11-21T06:39:59;0.50;;;0.50;;
33152;SDS011;19509;43.862;26.176;2023-11-21T06:42:25;0.60;;;0.60;;
33152;SDS011;19509;43.862;26.176;2023-11-21T06:44:52;0.50;;;0.50;;
33152;SDS011;19509;43.862;26.176;2023-11-21T06:47:18;0.60;;;0.60;;
33152;SDS011;19509;43.862;26.176;2023-11-21T06:49:50;0.50;;;0.50;;
33152;SDS011;19509;43.862;26.176;2023-11-21T06:52:16;0.60;;;0.60;;
33152;SDS011;19509;43.862;26.176;2023-11-21T06:54:42;0.50;;;0.50;;
33152;SDS011;19509;43.862;26.176;2023-11-21T06:57:07;0.60;;;0.60;;
33152;SDS011;19509;43.862;26.176;2023-11-21T06:59:33;0.40;;;0.40;;
33152;SDS011;19509;43.862;26.176;2023-11-21T07:01:59;0.60;;;0.60;;
33152;SDS011;19509;43.862;26.176;2023-11-21T07:04:24;0.50;;;0.50;;
33152;SDS011;19509;43.862;26.176;2023-11-21T07:06:55;0.50;;;0.50;;
33152;SDS011;19509;43.862;26.176;2023-11-21T07:09:21;0.50;;;0.50;;
33152;SDS011;19509;43.862;26.176;2023-11-21T07:11:47;0.40;;;0.40;;
33152;SDS011;19509;43.862;26.176;2023-11-21T07:14:14;0.40;;;0.40;;
33152;SDS011;19509;43.862;26.176;2023-11-21T07:16:39;0.47;;;0.47;;
33152;SDS011;19509;43.862;26.176;2023-11-21T07:19:05;0.50;;;0.50;;
33152;SDS011;19509;43.862;26.176;2023-11-21T07:21:35;0.60;;;0.60;;
33152;SDS011;19509;43.862;26.176;2023-11-21T07:24:01;0.53;;;0.53;;
33152;SDS011;19509;43.862;26.176;2023-11-21T07:26:27;0.50;;;0.50;;
33152;SDS011;19509;43.862;26.176;2023-11-21T07:28:53;0.50;;;0.50;;
33152;SDS011;19509;43.862;26.176;2023-11-21T07:31:19;0.50;;;0.50;;
33152;SDS011;19509;43.862;26.176;2023-11-21T07:33:45;0.40;;;0.40;;
33152;SDS011;19509;43.862;26.176;2023-11-21T07:36:14;0.40;;;0.40;;
33152;SDS011;19509;43.862;26.176;2023-11-21T07:38:41;0.50;;;0.50;;
33152;SDS011;19509;43.862;26.176;2023-11-21T07:41:07;0.50;;;0.50;;
33152;SDS011;19509;43.862;26.176;2023-11-21T07:43:34;0.73;;;0.73;;
33152;SDS011;19509;43.862;26.176;2023-11-21T07:46:03;1.57;;;1.57;;
33152;SDS011;19509;43.862;26.176;2023-11-21T07:48:30;1.10;;;1.10;;
33152;SDS011;19509;43.862;26.176;2023-11-21T07:50:56;0.50;;;0.50;;
33152;SDS011;19509;43.862;26.176;2023-11-21T07:53:23;0.43;;;0.43;;
33152;SDS011;19509;43.862;26.176;2023-11-21T07:55:58;0.67;;;0.67;;
33152;SDS011;19509;43.862;26.176;2023-11-21T07:58:30;1.30;;;1.30;;
33152;SDS011;19509;43.862;26.176;2023-11-21T08:00:59;1.17;;;1.17;;
33152;SDS011;19509;43.862;26.176;2023-11-21T08:03:25;1.20;;;1.20;;
33152;SDS011;19509;43.862;26.176;2023-11-21T08:06:00;1.17;;;1.17;;
33152;SDS011;19509;43.862;26.176;2023-11-21T08:08:28;1.00;;;1.00;;
33152;SDS011;19509;43.862;26.176;2023-11-21T08:10:54;0.60;;;0.60;;
33152;SDS011;19509;43.862;26.176;2023-11-21T08:13:23;0.70;;;0.70;;
33152;SDS011;19509;43.862;26.176;2023-11-21T08:15:49;0.60;;;0.60;;
33152;SDS011;19509;43.862;26.176;2023-11-21T08:18:15;0.40;;;0.40;;
33152;SDS011;19509;43.862;26.176;2023-11-21T08:20:42;0.60;;;0.60;;
33152;SDS011;19509;43.862;26.176;2023-11-21T08:23:08;0.60;;;0.60;;
33152;SDS011;19509;43.862;26.176;2023-11-21T08:25:33;0.40;;;0.40;;
33152;SDS011;19509;43.862;26.176;2023-11-21T08:28:00;0.60;;;0.60;;
33152;SDS011;19509;43.862;26.176;2023-11-21T08:30:25;0.40;;;0.40;;
33152;SDS011;19509;43.862;26.176;2023-11-21T08:32:54;0.43;;;0.43;;
33152;SDS011;19509;43.862;26.176;2023-11-21T08:35:23;0.50;;;0.50;;
33152;SDS011;19509;43.862;26.176;2023-11-21T08:37:51;0.40;;;0.40;;
33152;SDS011;19509;43.862;26.176;2023-11-21T08:40:18;0.47;;;0.47;;
33152;SDS011;19509;43.862;26.176;2023-11-21T08:42:45;0.40;;;0.40;;
33152;SDS011;19509;43.862;26.176;2023-11-21T08:45:11;0.40;;;0.40;;
33152;SDS011;19509;43.862;26.176;2023-11-21T08:47:38;0.40;;;0.40;;
33152;SDS011;19509;43.862;26.176;2023-11-21T08:50:05;0.40;;;0.40;;
33152;SDS011;19509;43.862;26.176;2023-11-21T08:52:32;0.50;;;0.50;;
33152;SDS011;19509;43.862;26.176;2023-11-21T08:54:58;0.47;;;0.47;;
33152;SDS011;19509;43.862;26.176;2023-11-21T08:57:27;0.40;;;0.40;;
33152;SDS011;19509;43.862;26.176;2023-11-21T08:59:53;0.40;;;0.40;;
33152;SDS011;19509;43.862;26.176;2023-11-21T09:02:23;0.50;;;0.50;;
33152;SDS011;19509;43.862;26.176;2023-11-21T09:04:51;0.40;;;0.40;;
33152;SDS011;19509;43.862;26.176;2023-11-21T09:07:17;0.40;;;0.40;;
33152;SDS011;19509;43.862;26.176;2023-11-21T09:09:46;0.40;;;0.40;;
33152;SDS011;19509;43.862;26.176;2023-11-21T09:12:13;0.40;;;0.40;;
33152;SDS011;19509;43.862;26.176;2023-11-21T09:14:38;0.40;;;0.40;;
33152;SDS011;19509;43.862;26.176;2023-11-21T09:17:04;0.50;;;0.50;;
33152;SDS011;19509;43.862;26.176;2023-11-21T09:19:36;0.40;;;0.40;;
33152;SDS011;19509;43.862;26.176;2023-11-21T09:22:02;0.40;;;0.40;;
33152;SDS011;19509;43.862;26.176;2023-11-21T09:24:28;0.50;;;0.50;;
33152;SDS011;19509;43.862;26.176;2023-11-21T09:26:53;0.50;;;0.50;;
33152;SDS011;19509;43.862;26.176;2023-11-21T09:29:19;0.40;;;0.40;;
33152;SDS011;19509;43.862;26.176;2023-11-21T09:31:44;0.40;;;0.40;;
33152;SDS011;19509;43.862;26.176;2023-11-21T09:34:10;0.40;;;0.40;;
33152;SDS011;19509;43.862;26.176;2023-11-21T09:36:36;0.50;;;0.50;;
33152;SDS011;19509;43.862;26.176;2023-11-21T09:39:04;0.50;;;0.50;;
33152;SDS011;19509;43.862;26.176;2023-11-21T09:41:52;1.60;;;1.60;;
33152;SDS011;19509;43.862;26.176;2023-11-21T09:44:32;0.90;;;0.90;;
33152;SDS011;19509;43.862;26.176;2023-11-21T09:47:02;1.30;;;1.30;;
33152;SDS011;19509;43.862;26.176;2023-11-21T09:49:28;0.93;;;0.93;;
33152;SDS011;19509;43.862;26.176;2023-11-21T09:52:00;0.80;;;0.80;;
33152;SDS011;19509;43.862;26.176;2023-11-21T09:54:28;0.60;;;0.60;;
33152;SDS011;19509;43.862;26.176;2023-11-21T09:56:56;0.50;;;0.50;;
33152;SDS011;19509;43.862;26.176;2023-11-21T09:59:23;0.50;;;0.50;;
33152;SDS011;19509;43.862;26.176;2023-11-21T10:01:49;0.50;;;0.50;;
33152;SDS011;19509;43.862;26.176;2023-11-21T10:04:15;0.40;;;0.40;;
33152;SDS011;19509;43.862;26.176;2023-11-21T10:06:42;0.50;;;0.50;;
33152;SDS011;19509;43.862;26.176;2023-11-21T10:09:12;0.40;;;0.40;;
33152;SDS011;19509;43.862;26.176;2023-11-21T10:11:42;0.70;;;0.70;;
33152;SDS011;19509;43.862;26.176;2023-11-21T10:14:11;0.50;;;0.50;;
33152;SDS011;19509;43.862;26.176;2023-11-21T10:16:40;0.40;;;0.40;;
33152;SDS011;19509;43.862;26.176;2023-11-21T10:19:10;0.50;;;0.50;;
33152;SDS011;19509;43.862;26.176;2023-11-21T10:21:38;0.50;;;0.50;;
33152;SDS011;19509;43.862;26.176;2023-11-21T10:24:05;0.50;;;0.50;;
33152;SDS011;19509;43.862;26.176;2023-11-21T10:26:31;0.40;;;0.40;;
33152;SDS011;19509;43.862;26.176;2023-11-21T10:28:57;0.60;;;0.60;;
33152;SDS011;19509;43.862;26.176;2023-11-21T10:31:26;0.47;;;0.47;;
33152;SDS011;19509;43.862;26.176;2023-11-21T10:33:52;0.50;;;0.50;;
33152;SDS011;19509;43.862;26.176;2023-11-21T10:36:25;0.50;;;0.50;;
33152;SDS011;19509;43.862;26.176;2023-11-21T10:38:52;0.40;;;0.40;;
33152;SDS011;19509;43.862;26.176;2023-11-21T10:41:18;0.40;;;0.40;;
33152;SDS011;19509;43.862;26.176;2023-11-21T10:43:45;0.40;;;0.40;;
33152;SDS011;19509;43.862;26.176;2023-11-21T10:46:10;0.40;;;0.40;;
33152;SDS011;19509;43.862;26.176;2023-11-21T10:48:36;0.50;;;0.50;;
33152;SDS011;19509;43.862;26.176;2023-11-21T10:51:08;0.50;;;0.50;;
33152;SDS011;19509;43.862;26.176;2023-11-21T10:53:40;0.40;;;0.40;;
33152;SDS011;19509;43.862;26.176;2023-11-21T10:56:08;0.50;;;0.50;;
33152;SDS011;19509;43.862;26.176;2023-11-21T10:58:36;0.50;;;0.50;;
33152;SDS011;19509;43.862;26.176;2023-11-21T11:01:05;0.40;;;0.40;;
33152;SDS011;19509;43.862;26.176;2023-11-21T11:03:31;0.80;;;0.80;;
33152;SDS011;19509;43.862;26.176;2023-11-21T11:06:01;0.70;;;0.70;;
33152;SDS011;19509;43.862;26.176;2023-11-21T11:08:28;0.40;;;0.40;;
33152;SDS011;19509;43.862;26.176;2023-11-21T11:10:54;0.47;;;0.47;;
33152;SDS011;19509;43.862;26.176;2023-11-21T11:13:19;0.40;;;0.40;;
33152;SDS011;19509;43.862;26.176;2023-11-21T11:15:49;0.40;;;0.40;;
33152;SDS011;19509;43.862;26.176;2023-11-21T11:18:15;0.50;;;0.50;;
33152;SDS011;19509;43.862;26.176;2023-11-21T11:20:42;0.40;;;0.40;;
33152;SDS011;19509;43.862;26.176;2023-11-21T11:28:40;0.40;;;0.40;;
33152;SDS011;19509;43.862;26.176;2023-11-21T11:36:47;0.37;;;0.37;;
33152;SDS011;19509;43.862;26.176;2023-11-21T11:39:29;0.40;;;0.40;;
33152;SDS011;19509;43.862;26.176;2023-11-21T11:42:02;0.40;;;0.40;;
33152;SDS011;19509;43.862;26.176;2023-11-21T11:44:50;0.40;;;0.40;;
33152;SDS011;19509;43.862;26.176;2023-11-21T11:50:01;0.40;;;0.40;;
33152;SDS011;19509;43.862;26.176;2023-11-21T11:52:41;0.40;;;0.40;;
33152;SDS011;19509;43.862;26.176;2023-11-21T11:55:17;0.40;;;0.40;;
33152;SDS011;19509;43.862;26.176;2023-11-21T11:57:50;0.40;;;0.40;;
33152;SDS011;19509;43.862;26.176;2023-11-21T12:05:14;0.40;;;0.40;;
33152;SDS011;19509;43.862;26.176;2023-11-21T12:07:47;0.40;;;0.40;;
33152;SDS011;19509;43.862;26.176;2023-11-21T12:10:23;0.40;;;0.40;;
33152;SDS011;19509;43.862;26.176;2023-11-21T12:12:51;0.43;;;0.43;;
33152;SDS011;19509;43.862;26.176;2023-11-21T12:15:18;0.40;;;0.40;;
33152;SDS011;19509;43.862;26.176;2023-11-21T12:17:45;0.40;;;0.40;;
33152;SDS011;19509;43.862;26.176;2023-11-21T12:20:11;0.40;;;0.40;;
33152;SDS011;19509;43.862;26.176;2023-11-21T12:22:52;0.40;;;0.40;;
33152;SDS011;19509;43.862;26.176;2023-11-21T12:25:20;0.40;;;0.40;;
33152;SDS011;19509;43.862;26.176;2023-11-21T12:27:50;0.40;;;0.40;;
33152;SDS011;19509;43.862;26.176;2023-11-21T12:30:18;0.37;;;0.37;;
33152;SDS011;19509;43.862;26.176;2023-11-21T12:32:50;0.40;;;0.40;;
33152;SDS011;19509;43.862;26.176;2023-11-21T12:35:17;0.40;;;0.40;;
33152;SDS011;19509;43.862;26.176;2023-11-21T12:37:47;0.40;;;0.40;;
33152;SDS011;19509;43.862;26.176;2023-11-21T12:40:14;0.37;;;0.37;;
33152;SDS011;19509;43.862;26.176;2023-11-21T12:42:40;0.40;;;0.40;;
33152;SDS011;19509;43.862;26.176;2023-11-21T12:45:07;0.40;;;0.40;;
33152;SDS011;19509;43.862;26.176;2023-11-21T12:50:23;0.40;;;0.40;;
33152;SDS011;19509;43.862;26.176;2023-11-21T12:52:53;0.40;;;0.40;;
33152;SDS011;19509;43.862;26.176;2023-11-21T12:55:23;0.40;;;0.40;;
33152;SDS011;19509;43.862;26.176;2023-11-21T12:57:49;0.40;;;0.40;;
33152;SDS011;19509;43.862;26.176;2023-11-21T13:00:33;0.40;;;0.40;;
33152;SDS011;19509;43.862;26.176;2023-11-21T13:03:04;0.40;;;0.40;;
33152;SDS011;19509;43.862;26.176;2023-11-21T13:05:38;0.43;;;0.43;;
33152;SDS011;19509;43.862;26.176;2023-11-21T13:08:07;0.43;;;0.43;;
33152;SDS011;19509;43.862;26.176;2023-11-21T13:10:35;0.40;;;0.40;;
33152;SDS011;19509;43.862;26.176;2023-11-21T13:13:02;0.40;;;0.40;;
33152;SDS011;19509;43.862;26.176;2023-11-21T13:15:39;0.40;;;0.40;;
33152;SDS011;19509;43.862;26.176;2023-11-21T13:18:08;0.50;;;0.50;;
33152;SDS011;19509;43.862;26.176;2023-11-21T13:20:36;0.40;;;0.40;;
33152;SDS011;19509;43.862;26.176;2023-11-21T13:23:06;0.60;;;0.60;;
33152;SDS011;19509;43.862;26.176;2023-11-21T13:25:33;0.50;;;0.50;;
33152;SDS011;19509;43.862;26.176;2023-11-21T13:28:00;0.50;;;0.50;;
33152;SDS011;19509;43.862;26.176;2023-11-21T13:30:28;0.50;;;0.50;;
33152;SDS011;19509;43.862;26.176;2023-11-21T13:33:03;0.50;;;0.50;;
33152;SDS011;19509;43.862;26.176;2023-11-21T13:35:36;0.40;;;0.40;;
33152;SDS011;19509;43.862;26.176;2023-11-21T13:38:10;0.40;;;0.40;;
33152;SDS011;19509;43.862;26.176;2023-11-21T13:40:41;0.40;;;0.40;;
33152;SDS011;19509;43.862;26.176;2023-11-21T13:43:16;0.40;;;0.40;;
33152;SDS011;19509;43.862;26.176;2023-11-21T13:45:47;0.50;;;0.50;;
33152;SDS011;19509;43.862;26.176;2023-11-21T13:48:17;0.50;;;0.50;;
33152;SDS011;19509;43.862;26.176;2023-11-21T13:50:50;0.40;;;0.40;;
33152;SDS011;19509;43.862;26.176;2023-11-21T13:53:35;0.40;;;0.40;;
33152;SDS011;19509;43.862;26.176;2023-11-21T13:56:02;0.40;;;0.40;;
33152;SDS011;19509;43.862;26.176;2023-11-21T13:58:28;0.50;;;0.50;;
33152;SDS011;19509;43.862;26.176;2023-11-21T14:01:10;0.50;;;0.50;;
33152;SDS011;19509;43.862;26.176;2023-11-21T14:03:56;0.60;;;0.60;;
33152;SDS011;19509;43.862;26.176;2023-11-21T14:06:41;0.50;;;0.50;;
33152;SDS011;19509;43.862;26.176;2023-11-21T14:09:14;0.50;;;0.50;;
33152;SDS011;19509;43.862;26.176;2023-11-21T14:12:00;0.73;;;0.73;;
33152;SDS011;19509;43.862;26.176;2023-11-21T14:14:31;0.50;;;0.50;;
33152;SDS011;19509;43.862;26.176;2023-11-21T14:16:57;0.50;;;0.50;;
33152;SDS011;19509;43.862;26.176;2023-11-21T14:19:23;0.73;;;0.73;;
33152;SDS011;19509;43.862;26.176;2023-11-21T14:21:55;0.80;;;0.80;;
33152;SDS011;19509;43.862;26.176;2023-11-21T14:24:21;0.67;;;0.67;;
33152;SDS011;19509;43.862;26.176;2023-11-21T14:26:48;1.20;;;1.20;;
33152;SDS011;19509;43.862;26.176;2023-11-21T14:29:17;1.20;;;1.20;;
33152;SDS011;19509;43.862;26.176;2023-11-21T14:31:48;0.70;;;0.70;;
33152;SDS011;19509;43.862;26.176;2023-11-21T14:34:16;0.60;;;0.60;;
33152;SDS011;19509;43.862;26.176;2023-11-21T14:36:42;0.50;;;0.50;;
33152;SDS011;19509;43.862;26.176;2023-11-21T14:39:09;0.40;;;0.40;;
33152;SDS011;19509;43.862;26.176;2023-11-21T14:41:47;0.50;;;0.50;;
33152;SDS011;19509;43.862;26.176;2023-11-21T14:44:14;0.50;;;0.50;;
33152;SDS011;19509;43.862;26.176;2023-11-21T14:46:40;0.50;;;0.50;;
33152;SDS011;19509;43.862;26.176;2023-11-21T14:49:11;1.30;;;1.30;;
33152;SDS011;19509;43.862;26.176;2023-11-21T14:51:47;0.80;;;0.80;;
33152;SDS011;19509;43.862;26.176;2023-11-21T14:54:34;0.60;;;0.60;;
33152;SDS011;19509;43.862;26.176;2023-11-21T14:57:06;0.50;;;0.50;;
33152;SDS011;19509;43.862;26.176;2023-11-21T14:59:37;0.80;;;0.80;;